sensor_id;sensor_type;location;lat;lon;timestamp;temperature;humidity
10891;DHT22;5498;50.928;11.598;2022-07-18T00:01:16;18.40;53.00
10891;DHT22;5498;50.928;11.598;2022-07-18T00:04:18;18.30;53.10
10891;DHT22;5498;50.928;11.598;2022-07-18T00:07:20;18.30;53.20
10891;DHT22;5498;50.928;11.598;2022-07-18T00:10:22;18.20;53.50
10891;DHT22;5498;50.928;11.598;2022-07-18T00:13:25;18.20;53.50
10891;DHT22;5498;50.928;11.598;2022-07-18T00:16:27;18.10;53.80
10891;DHT22;5498;50.928;11.598;2022-07-18T00:19:29;18.40;54.40
10891;DHT22;5498;50.928;11.598;2022-07-18T00:22:32;17.90;54.30
10891;DHT22;5498;50.928;11.598;2022-07-18T00:25:34;17.90;54.20
10891;DHT22;5498;50.928;11.598;2022-07-18T00:28:37;17.90;54.20
10891;DHT22;5498;50.928;11.598;2022-07-18T00:31:39;17.80;54.80
10891;DHT22;5498;50.928;11.598;2022-07-18T00:34:41;17.80;54.20
10891;DHT22;5498;50.928;11.598;2022-07-18T00:37:42;17.80;54.30
10891;DHT22;5498;50.928;11.598;2022-07-18T00:40:45;17.80;54.50
10891;DHT22;5498;50.928;11.598;2022-07-18T00:43:49;17.80;54.40
10891;DHT22;5498;50.928;11.598;2022-07-18T00:46:52;17.80;54.60
10891;DHT22;5498;50.928;11.598;2022-07-18T00:49:55;17.80;54.60
10891;DHT22;5498;50.928;11.598;2022-07-18T00:52:58;17.80;54.20
10891;DHT22;5498;50.928;11.598;2022-07-18T00:56:02;17.70;54.40
10891;DHT22;5498;50.928;11.598;2022-07-18T00:59:06;17.60;54.70
10891;DHT22;5498;50.928;11.598;2022-07-18T01:02:08;17.50;54.60
10891;DHT22;5498;50.928;11.598;2022-07-18T01:05:09;17.40;54.50
10891;DHT22;5498;50.928;11.598;2022-07-18T01:08:11;17.40;54.80
10891;DHT22;5498;50.928;11.598;2022-07-18T01:11:14;17.30;54.80
10891;DHT22;5498;50.928;11.598;2022-07-18T01:14:17;17.20;54.90
10891;DHT22;5498;50.928;11.598;2022-07-18T01:17:19;17.10;55.30
10891;DHT22;5498;50.928;11.598;2022-07-18T01:20:21;17.00;55.40
10891;DHT22;5498;50.928;11.598;2022-07-18T01:23:28;17.00;55.70
10891;DHT22;5498;50.928;11.598;2022-07-18T01:26:30;17.00;55.70
10891;DHT22;5498;50.928;11.598;2022-07-18T01:29:32;17.00;55.70
10891;DHT22;5498;50.928;11.598;2022-07-18T01:32:34;17.00;55.80
10891;DHT22;5498;50.928;11.598;2022-07-18T01:35:37;17.00;55.80
10891;DHT22;5498;50.928;11.598;2022-07-18T01:38:39;16.90;55.80
10891;DHT22;5498;50.928;11.598;2022-07-18T01:41:41;16.80;56.20
10891;DHT22;5498;50.928;11.598;2022-07-18T01:44:43;16.70;56.20
10891;DHT22;5498;50.928;11.598;2022-07-18T01:47:45;16.60;56.70
10891;DHT22;5498;50.928;11.598;2022-07-18T01:50:49;16.60;56.70
10891;DHT22;5498;50.928;11.598;2022-07-18T01:53:56;16.60;56.80
10891;DHT22;5498;50.928;11.598;2022-07-18T01:57:03;16.50;56.90
10891;DHT22;5498;50.928;11.598;2022-07-18T02:00:08;16.50;57.10
10891;DHT22;5498;50.928;11.598;2022-07-18T02:03:12;16.50;57.40
10891;DHT22;5498;50.928;11.598;2022-07-18T02:06:16;16.50;57.70
10891;DHT22;5498;50.928;11.598;2022-07-18T02:09:18;16.40;57.70
10891;DHT22;5498;50.928;11.598;2022-07-18T02:12:20;16.40;57.90
10891;DHT22;5498;50.928;11.598;2022-07-18T02:15:22;16.30;58.00
10891;DHT22;5498;50.928;11.598;2022-07-18T02:18:24;16.20;58.10
10891;DHT22;5498;50.928;11.598;2022-07-18T02:21:27;16.20;58.30
10891;DHT22;5498;50.928;11.598;2022-07-18T02:24:29;16.10;58.40
10891;DHT22;5498;50.928;11.598;2022-07-18T02:27:31;16.10;58.60
10891;DHT22;5498;50.928;11.598;2022-07-18T02:30:33;16.00;59.00
10891;DHT22;5498;50.928;11.598;2022-07-18T02:33:35;15.90;59.10
10891;DHT22;5498;50.928;11.598;2022-07-18T02:36:39;15.90;59.40
10891;DHT22;5498;50.928;11.598;2022-07-18T02:39:41;16.00;59.50
10891;DHT22;5498;50.928;11.598;2022-07-18T02:42:43;15.90;59.50
10891;DHT22;5498;50.928;11.598;2022-07-18T02:45:45;15.80;59.60
10891;DHT22;5498;50.928;11.598;2022-07-18T02:48:48;15.80;59.80
10891;DHT22;5498;50.928;11.598;2022-07-18T02:51:51;15.70;59.80
10891;DHT22;5498;50.928;11.598;2022-07-18T02:54:53;15.70;59.90
10891;DHT22;5498;50.928;11.598;2022-07-18T02:57:57;15.70;60.20
10891;DHT22;5498;50.928;11.598;2022-07-18T03:00:59;15.60;60.40
10891;DHT22;5498;50.928;11.598;2022-07-18T03:04:01;15.60;60.90
10891;DHT22;5498;50.928;11.598;2022-07-18T03:07:04;15.50;61.20
10891;DHT22;5498;50.928;11.598;2022-07-18T03:10:07;15.40;61.60
10891;DHT22;5498;50.928;11.598;2022-07-18T03:13:09;15.40;61.80
10891;DHT22;5498;50.928;11.598;2022-07-18T03:16:13;15.30;62.00
10891;DHT22;5498;50.928;11.598;2022-07-18T03:19:15;15.30;61.80
10891;DHT22;5498;50.928;11.598;2022-07-18T03:22:19;15.30;61.70
10891;DHT22;5498;50.928;11.598;2022-07-18T03:25:21;15.30;61.80
10891;DHT22;5498;50.928;11.598;2022-07-18T03:28:23;15.30;61.90
10891;DHT22;5498;50.928;11.598;2022-07-18T03:31:24;15.20;61.80
10891;DHT22;5498;50.928;11.598;2022-07-18T03:34:26;15.20;62.00
10891;DHT22;5498;50.928;11.598;2022-07-18T03:37:30;15.10;62.50
10891;DHT22;5498;50.928;11.598;2022-07-18T03:40:32;15.00;63.00
10891;DHT22;5498;50.928;11.598;2022-07-18T03:43:35;15.00;63.30
10891;DHT22;5498;50.928;11.598;2022-07-18T03:46:37;14.90;63.30
10891;DHT22;5498;50.928;11.598;2022-07-18T03:49:39;14.90;63.30
10891;DHT22;5498;50.928;11.598;2022-07-18T03:52:42;14.90;63.20
10891;DHT22;5498;50.928;11.598;2022-07-18T03:55:44;14.90;63.10
10891;DHT22;5498;50.928;11.598;2022-07-18T03:58:46;14.90;63.10
10891;DHT22;5498;50.928;11.598;2022-07-18T04:01:48;14.90;63.20
10891;DHT22;5498;50.928;11.598;2022-07-18T04:04:50;14.90;63.20
10891;DHT22;5498;50.928;11.598;2022-07-18T04:07:54;14.80;64.10
10891;DHT22;5498;50.928;11.598;2022-07-18T04:10:56;14.90;63.90
10891;DHT22;5498;50.928;11.598;2022-07-18T04:13:58;15.00;63.60
10891;DHT22;5498;50.928;11.598;2022-07-18T04:17:00;15.10;63.10
10891;DHT22;5498;50.928;11.598;2022-07-18T04:20:02;15.30;63.00
10891;DHT22;5498;50.928;11.598;2022-07-18T04:23:07;15.50;62.50
10891;DHT22;5498;50.928;11.598;2022-07-18T04:26:10;15.60;62.10
10891;DHT22;5498;50.928;11.598;2022-07-18T04:29:12;15.80;61.70
10891;DHT22;5498;50.928;11.598;2022-07-18T04:32:14;16.00;61.20
10891;DHT22;5498;50.928;11.598;2022-07-18T04:35:16;16.20;60.70
10891;DHT22;5498;50.928;11.598;2022-07-18T04:38:19;16.40;60.20
10891;DHT22;5498;50.928;11.598;2022-07-18T04:41:21;16.60;60.00
10891;DHT22;5498;50.928;11.598;2022-07-18T04:44:26;16.80;59.60
10891;DHT22;5498;50.928;11.598;2022-07-18T04:47:28;17.10;59.40
10891;DHT22;5498;50.928;11.598;2022-07-18T04:50:30;17.80;58.40
10891;DHT22;5498;50.928;11.598;2022-07-18T04:53:34;18.50;56.50
10891;DHT22;5498;50.928;11.598;2022-07-18T04:56:36;18.80;55.60
10891;DHT22;5498;50.928;11.598;2022-07-18T04:59:38;19.00;55.30
10891;DHT22;5498;50.928;11.598;2022-07-18T05:02:40;19.30;55.00
10891;DHT22;5498;50.928;11.598;2022-07-18T05:05:43;20.00;54.10
10891;DHT22;5498;50.928;11.598;2022-07-18T05:08:46;20.80;52.50
10891;DHT22;5498;50.928;11.598;2022-07-18T05:11:48;21.60;50.70
10891;DHT22;5498;50.928;11.598;2022-07-18T05:14:50;22.10;49.90
10891;DHT22;5498;50.928;11.598;2022-07-18T05:17:52;21.80;49.70
10891;DHT22;5498;50.928;11.598;2022-07-18T05:20:54;21.60;50.00
10891;DHT22;5498;50.928;11.598;2022-07-18T05:23:57;21.50;49.80
10891;DHT22;5498;50.928;11.598;2022-07-18T05:27:00;21.40;49.90
10891;DHT22;5498;50.928;11.598;2022-07-18T05:30:03;21.30;50.10
10891;DHT22;5498;50.928;11.598;2022-07-18T05:33:06;21.30;50.40
10891;DHT22;5498;50.928;11.598;2022-07-18T05:36:09;21.40;50.10
10891;DHT22;5498;50.928;11.598;2022-07-18T05:39:12;21.40;49.90
10891;DHT22;5498;50.928;11.598;2022-07-18T05:42:14;21.90;49.80
10891;DHT22;5498;50.928;11.598;2022-07-18T05:45:16;21.70;49.10
10891;DHT22;5498;50.928;11.598;2022-07-18T05:48:18;21.90;49.00
10891;DHT22;5498;50.928;11.598;2022-07-18T05:51:21;22.10;48.20
10891;DHT22;5498;50.928;11.598;2022-07-18T05:54:24;22.50;47.70
10891;DHT22;5498;50.928;11.598;2022-07-18T05:57:26;22.70;47.30
10891;DHT22;5498;50.928;11.598;2022-07-18T06:00:32;22.90;46.00
10891;DHT22;5498;50.928;11.598;2022-07-18T06:03:35;23.30;45.90
10891;DHT22;5498;50.928;11.598;2022-07-18T06:06:43;23.70;44.90
10891;DHT22;5498;50.928;11.598;2022-07-18T06:09:54;23.80;45.60
10891;DHT22;5498;50.928;11.598;2022-07-18T06:12:57;24.20;44.10
10891;DHT22;5498;50.928;11.598;2022-07-18T06:16:03;24.20;43.20
10891;DHT22;5498;50.928;11.598;2022-07-18T06:19:06;24.50;43.90
10891;DHT22;5498;50.928;11.598;2022-07-18T06:22:08;24.80;42.50
10891;DHT22;5498;50.928;11.598;2022-07-18T06:25:12;24.70;41.80
10891;DHT22;5498;50.928;11.598;2022-07-18T06:28:15;25.60;41.90
10891;DHT22;5498;50.928;11.598;2022-07-18T06:31:18;25.90;40.70
10891;DHT22;5498;50.928;11.598;2022-07-18T06:34:20;26.20;40.80
10891;DHT22;5498;50.928;11.598;2022-07-18T06:37:22;26.50;39.60
10891;DHT22;5498;50.928;11.598;2022-07-18T06:40:26;26.40;38.40
10891;DHT22;5498;50.928;11.598;2022-07-18T06:43:28;26.80;39.40
10891;DHT22;5498;50.928;11.598;2022-07-18T06:46:30;27.30;39.30
10891;DHT22;5498;50.928;11.598;2022-07-18T06:49:32;27.70;38.60
10891;DHT22;5498;50.928;11.598;2022-07-18T06:52:34;28.10;38.00
10891;DHT22;5498;50.928;11.598;2022-07-18T06:55:37;28.50;37.80
10891;DHT22;5498;50.928;11.598;2022-07-18T06:58:39;29.00;37.70
10891;DHT22;5498;50.928;11.598;2022-07-18T07:01:41;29.30;36.50
10891;DHT22;5498;50.928;11.598;2022-07-18T07:04:44;29.90;36.70
10891;DHT22;5498;50.928;11.598;2022-07-18T07:07:46;29.90;36.20
10891;DHT22;5498;50.928;11.598;2022-07-18T07:10:50;30.30;35.50
10891;DHT22;5498;50.928;11.598;2022-07-18T07:13:52;31.00;34.40
10891;DHT22;5498;50.928;11.598;2022-07-18T07:16:54;32.60;33.70
10891;DHT22;5498;50.928;11.598;2022-07-18T07:19:56;33.40;32.80
10891;DHT22;5498;50.928;11.598;2022-07-18T07:22:58;33.80;32.00
10891;DHT22;5498;50.928;11.598;2022-07-18T07:26:06;34.60;31.50
10891;DHT22;5498;50.928;11.598;2022-07-18T07:29:08;35.40;31.00
10891;DHT22;5498;50.928;11.598;2022-07-18T07:32:11;36.40;30.60
10891;DHT22;5498;50.928;11.598;2022-07-18T07:35:14;37.10;29.80
10891;DHT22;5498;50.928;11.598;2022-07-18T07:38:17;37.60;29.30
10891;DHT22;5498;50.928;11.598;2022-07-18T07:41:20;37.80;28.80
10891;DHT22;5498;50.928;11.598;2022-07-18T07:44:23;38.00;28.80
10891;DHT22;5498;50.928;11.598;2022-07-18T07:47:25;38.30;28.30
10891;DHT22;5498;50.928;11.598;2022-07-18T07:50:26;37.90;28.10
10891;DHT22;5498;50.928;11.598;2022-07-18T07:53:29;38.40;28.00
10891;DHT22;5498;50.928;11.598;2022-07-18T07:56:33;39.20;27.80
10891;DHT22;5498;50.928;11.598;2022-07-18T07:59:34;39.90;27.30
10891;DHT22;5498;50.928;11.598;2022-07-18T08:02:37;40.30;27.30
10891;DHT22;5498;50.928;11.598;2022-07-18T08:05:44;40.70;27.30
10891;DHT22;5498;50.928;11.598;2022-07-18T08:08:47;41.10;27.00
10891;DHT22;5498;50.928;11.598;2022-07-18T08:11:51;41.30;26.60
10891;DHT22;5498;50.928;11.598;2022-07-18T08:14:53;41.50;26.60
10891;DHT22;5498;50.928;11.598;2022-07-18T08:17:54;41.60;26.60
10891;DHT22;5498;50.928;11.598;2022-07-18T08:20:56;41.60;26.30
10891;DHT22;5498;50.928;11.598;2022-07-18T08:23:59;41.50;26.40
10891;DHT22;5498;50.928;11.598;2022-07-18T08:27:02;41.40;26.30
10891;DHT22;5498;50.928;11.598;2022-07-18T08:30:05;41.20;26.00
10891;DHT22;5498;50.928;11.598;2022-07-18T08:33:08;41.00;26.60
10891;DHT22;5498;50.928;11.598;2022-07-18T08:36:10;41.00;26.90
10891;DHT22;5498;50.928;11.598;2022-07-18T08:39:12;41.00;27.10
10891;DHT22;5498;50.928;11.598;2022-07-18T08:42:16;40.90;26.90
10891;DHT22;5498;50.928;11.598;2022-07-18T08:45:21;40.80;27.20
10891;DHT22;5498;50.928;11.598;2022-07-18T08:48:24;40.80;27.50
10891;DHT22;5498;50.928;11.598;2022-07-18T08:51:26;41.00;27.30
10891;DHT22;5498;50.928;11.598;2022-07-18T08:54:28;40.80;27.30
10891;DHT22;5498;50.928;11.598;2022-07-18T08:57:31;40.90;27.40
10891;DHT22;5498;50.928;11.598;2022-07-18T09:00:34;40.30;27.20
10891;DHT22;5498;50.928;11.598;2022-07-18T09:03:36;39.80;26.80
10891;DHT22;5498;50.928;11.598;2022-07-18T09:06:42;38.70;26.10
10891;DHT22;5498;50.928;11.598;2022-07-18T09:09:52;37.60;26.90
10891;DHT22;5498;50.928;11.598;2022-07-18T09:12:58;36.90;27.50
10891;DHT22;5498;50.928;11.598;2022-07-18T09:16:06;36.30;26.30
10891;DHT22;5498;50.928;11.598;2022-07-18T09:19:16;35.80;27.10
10891;DHT22;5498;50.928;11.598;2022-07-18T09:22:19;35.40;27.80
10891;DHT22;5498;50.928;11.598;2022-07-18T09:25:23;35.10;29.80
10891;DHT22;5498;50.928;11.598;2022-07-18T09:28:27;34.50;28.80
10891;DHT22;5498;50.928;11.598;2022-07-18T09:31:29;34.20;27.30
10891;DHT22;5498;50.928;11.598;2022-07-18T09:34:33;33.80;27.90
10891;DHT22;5498;50.928;11.598;2022-07-18T09:37:36;33.40;28.20
10891;DHT22;5498;50.928;11.598;2022-07-18T09:40:41;32.60;27.20
10891;DHT22;5498;50.928;11.598;2022-07-18T09:43:45;32.30;28.80
10891;DHT22;5498;50.928;11.598;2022-07-18T09:47:01;31.90;28.20
10891;DHT22;5498;50.928;11.598;2022-07-18T09:50:06;31.20;29.20
10891;DHT22;5498;50.928;11.598;2022-07-18T09:53:22;30.90;30.20
10891;DHT22;5498;50.928;11.598;2022-07-18T09:56:30;30.80;30.70
10891;DHT22;5498;50.928;11.598;2022-07-18T09:59:37;30.70;29.80
10891;DHT22;5498;50.928;11.598;2022-07-18T10:02:39;30.80;30.60
10891;DHT22;5498;50.928;11.598;2022-07-18T10:05:43;30.20;30.40
10891;DHT22;5498;50.928;11.598;2022-07-18T10:08:46;30.20;30.50
10891;DHT22;5498;50.928;11.598;2022-07-18T10:11:48;30.20;31.40
10891;DHT22;5498;50.928;11.598;2022-07-18T10:14:52;30.10;31.20
10891;DHT22;5498;50.928;11.598;2022-07-18T10:17:55;30.00;30.70
10891;DHT22;5498;50.928;11.598;2022-07-18T10:20:59;30.10;31.30
10891;DHT22;5498;50.928;11.598;2022-07-18T10:24:06;30.30;31.60
10891;DHT22;5498;50.928;11.598;2022-07-18T10:27:14;30.40;30.60
10891;DHT22;5498;50.928;11.598;2022-07-18T10:30:29;30.60;31.50
10891;DHT22;5498;50.928;11.598;2022-07-18T10:33:38;30.70;31.50
10891;DHT22;5498;50.928;11.598;2022-07-18T10:37:07;30.70;30.70
10891;DHT22;5498;50.928;11.598;2022-07-18T10:40:21;30.70;30.00
10891;DHT22;5498;50.928;11.598;2022-07-18T10:43:37;30.80;29.90
10891;DHT22;5498;50.928;11.598;2022-07-18T10:47:04;30.60;30.30
10891;DHT22;5498;50.928;11.598;2022-07-18T10:50:09;30.60;30.70
10891;DHT22;5498;50.928;11.598;2022-07-18T10:53:11;30.70;30.80
10891;DHT22;5498;50.928;11.598;2022-07-18T10:56:13;31.10;30.60
10891;DHT22;5498;50.928;11.598;2022-07-18T10:59:16;30.80;30.00
10891;DHT22;5498;50.928;11.598;2022-07-18T11:02:30;30.80;30.20
10891;DHT22;5498;50.928;11.598;2022-07-18T11:05:34;30.80;29.90
10891;DHT22;5498;50.928;11.598;2022-07-18T11:08:37;30.40;29.40
10891;DHT22;5498;50.928;11.598;2022-07-18T11:12:18;30.00;29.40
10891;DHT22;5498;50.928;11.598;2022-07-18T11:15:22;29.80;30.00
10891;DHT22;5498;50.928;11.598;2022-07-18T11:18:25;29.60;29.90
10891;DHT22;5498;50.928;11.598;2022-07-18T11:21:29;29.60;29.80
10891;DHT22;5498;50.928;11.598;2022-07-18T11:24:32;29.30;30.00
10891;DHT22;5498;50.928;11.598;2022-07-18T11:27:39;29.30;30.50
10891;DHT22;5498;50.928;11.598;2022-07-18T11:30:42;29.10;30.80
10891;DHT22;5498;50.928;11.598;2022-07-18T11:33:48;28.80;30.20
10891;DHT22;5498;50.928;11.598;2022-07-18T11:36:53;29.10;30.30
10891;DHT22;5498;50.928;11.598;2022-07-18T11:40:04;29.20;30.00
10891;DHT22;5498;50.928;11.598;2022-07-18T11:43:07;29.10;30.60
10891;DHT22;5498;50.928;11.598;2022-07-18T11:46:13;28.90;30.10
10891;DHT22;5498;50.928;11.598;2022-07-18T11:49:17;28.90;30.70
10891;DHT22;5498;50.928;11.598;2022-07-18T11:52:22;29.30;30.10
10891;DHT22;5498;50.928;11.598;2022-07-18T11:55:32;29.20;30.70
10891;DHT22;5498;50.928;11.598;2022-07-18T11:58:36;29.10;31.40
10891;DHT22;5498;50.928;11.598;2022-07-18T12:01:38;29.50;31.50
10891;DHT22;5498;50.928;11.598;2022-07-18T12:04:42;29.10;31.30
10891;DHT22;5498;50.928;11.598;2022-07-18T12:07:44;29.10;31.50
10891;DHT22;5498;50.928;11.598;2022-07-18T12:11:04;29.30;31.80
10891;DHT22;5498;50.928;11.598;2022-07-18T12:14:14;29.50;32.10
10891;DHT22;5498;50.928;11.598;2022-07-18T12:17:16;29.80;32.00
10891;DHT22;5498;50.928;11.598;2022-07-18T12:20:21;30.20;31.50
10891;DHT22;5498;50.928;11.598;2022-07-18T12:23:28;29.90;31.00
10891;DHT22;5498;50.928;11.598;2022-07-18T12:26:31;29.80;30.50
10891;DHT22;5498;50.928;11.598;2022-07-18T12:29:56;29.70;30.70
10891;DHT22;5498;50.928;11.598;2022-07-18T12:33:07;29.30;30.90
10891;DHT22;5498;50.928;11.598;2022-07-18T12:36:11;29.40;31.20
10891;DHT22;5498;50.928;11.598;2022-07-18T12:39:13;29.50;31.30
10891;DHT22;5498;50.928;11.598;2022-07-18T12:42:28;29.90;31.60
10891;DHT22;5498;50.928;11.598;2022-07-18T12:45:31;29.60;31.40
10891;DHT22;5498;50.928;11.598;2022-07-18T12:48:34;29.50;31.50
10891;DHT22;5498;50.928;11.598;2022-07-18T12:51:38;29.60;31.60
10891;DHT22;5498;50.928;11.598;2022-07-18T12:54:40;29.80;31.70
10891;DHT22;5498;50.928;11.598;2022-07-18T12:57:42;29.90;31.40
10891;DHT22;5498;50.928;11.598;2022-07-18T13:00:46;29.80;31.40
10891;DHT22;5498;50.928;11.598;2022-07-18T13:03:48;29.50;31.90
10891;DHT22;5498;50.928;11.598;2022-07-18T13:06:51;29.10;31.00
10891;DHT22;5498;50.928;11.598;2022-07-18T13:09:53;29.30;31.40
10891;DHT22;5498;50.928;11.598;2022-07-18T13:12:55;29.40;31.70
10891;DHT22;5498;50.928;11.598;2022-07-18T13:15:57;29.60;31.80
10891;DHT22;5498;50.928;11.598;2022-07-18T13:18:59;29.70;31.80
10891;DHT22;5498;50.928;11.598;2022-07-18T13:22:02;29.90;31.80
10891;DHT22;5498;50.928;11.598;2022-07-18T13:25:05;29.90;31.80
10891;DHT22;5498;50.928;11.598;2022-07-18T13:28:08;30.00;32.20
10891;DHT22;5498;50.928;11.598;2022-07-18T13:31:10;30.30;31.80
10891;DHT22;5498;50.928;11.598;2022-07-18T13:34:12;30.10;31.60
10891;DHT22;5498;50.928;11.598;2022-07-18T13:37:16;29.70;31.60
10891;DHT22;5498;50.928;11.598;2022-07-18T13:40:18;29.80;31.80
10891;DHT22;5498;50.928;11.598;2022-07-18T13:43:20;29.50;31.60
10891;DHT22;5498;50.928;11.598;2022-07-18T13:46:22;29.50;32.00
10891;DHT22;5498;50.928;11.598;2022-07-18T13:49:24;29.70;32.00
10891;DHT22;5498;50.928;11.598;2022-07-18T13:52:28;29.80;32.30
10891;DHT22;5498;50.928;11.598;2022-07-18T13:55:30;29.80;32.10
10891;DHT22;5498;50.928;11.598;2022-07-18T13:58:32;29.80;31.90
10891;DHT22;5498;50.928;11.598;2022-07-18T14:01:34;29.80;32.00
10891;DHT22;5498;50.928;11.598;2022-07-18T14:04:36;29.80;31.70
10891;DHT22;5498;50.928;11.598;2022-07-18T14:07:39;29.80;32.00
10891;DHT22;5498;50.928;11.598;2022-07-18T14:10:42;29.90;31.90
10891;DHT22;5498;50.928;11.598;2022-07-18T14:13:44;29.60;31.80
10891;DHT22;5498;50.928;11.598;2022-07-18T14:16:47;29.80;31.80
10891;DHT22;5498;50.928;11.598;2022-07-18T14:19:49;29.90;31.90
10891;DHT22;5498;50.928;11.598;2022-07-18T14:22:52;29.90;32.10
10891;DHT22;5498;50.928;11.598;2022-07-18T14:25:55;30.30;32.20
10891;DHT22;5498;50.928;11.598;2022-07-18T14:28:58;30.00;32.40
10891;DHT22;5498;50.928;11.598;2022-07-18T14:32:00;29.90;31.70
10891;DHT22;5498;50.928;11.598;2022-07-18T14:35:03;29.80;31.80
10891;DHT22;5498;50.928;11.598;2022-07-18T14:38:07;29.80;31.90
10891;DHT22;5498;50.928;11.598;2022-07-18T14:41:09;29.80;31.90
10891;DHT22;5498;50.928;11.598;2022-07-18T14:44:11;29.90;31.90
10891;DHT22;5498;50.928;11.598;2022-07-18T14:47:13;29.90;32.10
10891;DHT22;5498;50.928;11.598;2022-07-18T14:50:15;30.00;31.80
10891;DHT22;5498;50.928;11.598;2022-07-18T14:53:18;29.60;31.90
10891;DHT22;5498;50.928;11.598;2022-07-18T14:56:20;29.70;32.70
10891;DHT22;5498;50.928;11.598;2022-07-18T14:59:22;29.80;32.60
10891;DHT22;5498;50.928;11.598;2022-07-18T15:02:25;29.80;32.70
10891;DHT22;5498;50.928;11.598;2022-07-18T15:05:27;29.80;32.60
10891;DHT22;5498;50.928;11.598;2022-07-18T15:08:30;29.90;32.90
10891;DHT22;5498;50.928;11.598;2022-07-18T15:11:33;30.00;32.80
10891;DHT22;5498;50.928;11.598;2022-07-18T15:14:35;30.10;32.70
10891;DHT22;5498;50.928;11.598;2022-07-18T15:17:37;30.20;32.50
10891;DHT22;5498;50.928;11.598;2022-07-18T15:20:39;30.10;32.40
10891;DHT22;5498;50.928;11.598;2022-07-18T15:23:42;30.10;32.10
10891;DHT22;5498;50.928;11.598;2022-07-18T15:26:44;30.00;32.20
10891;DHT22;5498;50.928;11.598;2022-07-18T15:29:46;30.00;32.40
10891;DHT22;5498;50.928;11.598;2022-07-18T15:32:48;30.00;32.20
10891;DHT22;5498;50.928;11.598;2022-07-18T15:35:50;30.30;32.30
10891;DHT22;5498;50.928;11.598;2022-07-18T15:38:53;29.90;32.60
10891;DHT22;5498;50.928;11.598;2022-07-18T15:41:56;29.90;32.90
10891;DHT22;5498;50.928;11.598;2022-07-18T15:44:58;29.90;33.80
10891;DHT22;5498;50.928;11.598;2022-07-18T15:48:00;29.90;35.20
10891;DHT22;5498;50.928;11.598;2022-07-18T15:51:03;29.90;35.00
10891;DHT22;5498;50.928;11.598;2022-07-18T15:54:07;29.90;35.40
10891;DHT22;5498;50.928;11.598;2022-07-18T15:57:09;29.80;35.20
10891;DHT22;5498;50.928;11.598;2022-07-18T16:00:12;29.80;36.50
10891;DHT22;5498;50.928;11.598;2022-07-18T16:03:14;29.70;36.10
10891;DHT22;5498;50.928;11.598;2022-07-18T16:06:16;29.70;35.70
10891;DHT22;5498;50.928;11.598;2022-07-18T16:09:19;30.00;35.80
10891;DHT22;5498;50.928;11.598;2022-07-18T16:12:21;29.60;36.00
10891;DHT22;5498;50.928;11.598;2022-07-18T16:15:23;29.70;36.00
10891;DHT22;5498;50.928;11.598;2022-07-18T16:18:25;29.70;35.00
10891;DHT22;5498;50.928;11.598;2022-07-18T16:21:27;29.70;36.10
10891;DHT22;5498;50.928;11.598;2022-07-18T16:24:30;30.00;37.20
10891;DHT22;5498;50.928;11.598;2022-07-18T16:27:32;29.60;37.10
10891;DHT22;5498;50.928;11.598;2022-07-18T16:30:34;29.40;33.90
10891;DHT22;5498;50.928;11.598;2022-07-18T16:33:36;29.40;33.60
10891;DHT22;5498;50.928;11.598;2022-07-18T16:36:38;29.50;33.90
10891;DHT22;5498;50.928;11.598;2022-07-18T16:39:42;29.30;33.80
10891;DHT22;5498;50.928;11.598;2022-07-18T16:42:45;29.20;33.80
10891;DHT22;5498;50.928;11.598;2022-07-18T16:45:48;29.20;33.70
10891;DHT22;5498;50.928;11.598;2022-07-18T16:48:50;29.30;34.40
10891;DHT22;5498;50.928;11.598;2022-07-18T16:51:53;29.40;36.30
10891;DHT22;5498;50.928;11.598;2022-07-18T16:54:58;29.40;35.40
10891;DHT22;5498;50.928;11.598;2022-07-18T16:58:01;29.50;34.80
10891;DHT22;5498;50.928;11.598;2022-07-18T17:01:04;29.50;34.50
10891;DHT22;5498;50.928;11.598;2022-07-18T17:04:09;29.60;34.20
10891;DHT22;5498;50.928;11.598;2022-07-18T17:07:12;29.60;34.10
10891;DHT22;5498;50.928;11.598;2022-07-18T17:10:15;29.60;33.90
10891;DHT22;5498;50.928;11.598;2022-07-18T17:13:20;29.50;33.90
10891;DHT22;5498;50.928;11.598;2022-07-18T17:16:22;29.40;34.00
10891;DHT22;5498;50.928;11.598;2022-07-18T17:19:25;29.40;34.00
10891;DHT22;5498;50.928;11.598;2022-07-18T17:22:29;29.30;34.10
10891;DHT22;5498;50.928;11.598;2022-07-18T17:25:33;29.30;34.20
10891;DHT22;5498;50.928;11.598;2022-07-18T17:28:35;29.30;33.90
10891;DHT22;5498;50.928;11.598;2022-07-18T17:31:38;29.30;34.10
10891;DHT22;5498;50.928;11.598;2022-07-18T17:34:41;29.40;34.30
10891;DHT22;5498;50.928;11.598;2022-07-18T17:37:46;29.30;34.50
10891;DHT22;5498;50.928;11.598;2022-07-18T17:40:51;29.30;34.80
10891;DHT22;5498;50.928;11.598;2022-07-18T17:43:53;29.30;34.80
10891;DHT22;5498;50.928;11.598;2022-07-18T17:46:56;29.20;34.70
10891;DHT22;5498;50.928;11.598;2022-07-18T17:49:59;29.00;34.60
10891;DHT22;5498;50.928;11.598;2022-07-18T17:53:02;28.90;34.70
10891;DHT22;5498;50.928;11.598;2022-07-18T17:56:07;28.80;34.90
10891;DHT22;5498;50.928;11.598;2022-07-18T17:59:12;28.70;35.20
10891;DHT22;5498;50.928;11.598;2022-07-18T18:02:14;28.70;35.20
10891;DHT22;5498;50.928;11.598;2022-07-18T18:05:17;28.70;35.50
10891;DHT22;5498;50.928;11.598;2022-07-18T18:08:19;28.70;36.40
10891;DHT22;5498;50.928;11.598;2022-07-18T18:11:22;29.10;37.00
10891;DHT22;5498;50.928;11.598;2022-07-18T18:14:24;29.00;37.40
10891;DHT22;5498;50.928;11.598;2022-07-18T18:17:26;28.60;37.50
10891;DHT22;5498;50.928;11.598;2022-07-18T18:20:28;28.50;37.80
10891;DHT22;5498;50.928;11.598;2022-07-18T18:23:31;28.30;38.20
10891;DHT22;5498;50.928;11.598;2022-07-18T18:26:34;28.10;38.50
10891;DHT22;5498;50.928;11.598;2022-07-18T18:29:36;28.00;38.80
10891;DHT22;5498;50.928;11.598;2022-07-18T18:32:38;28.00;39.90
10891;DHT22;5498;50.928;11.598;2022-07-18T18:35:40;28.00;40.60
10891;DHT22;5498;50.928;11.598;2022-07-18T18:38:42;27.90;40.90
10891;DHT22;5498;50.928;11.598;2022-07-18T18:41:45;27.80;41.10
10891;DHT22;5498;50.928;11.598;2022-07-18T18:44:47;27.70;41.50
10891;DHT22;5498;50.928;11.598;2022-07-18T18:47:49;27.70;41.60
10891;DHT22;5498;50.928;11.598;2022-07-18T18:50:51;27.60;42.10
10891;DHT22;5498;50.928;11.598;2022-07-18T18:53:53;27.50;42.40
10891;DHT22;5498;50.928;11.598;2022-07-18T18:56:56;27.40;42.50
10891;DHT22;5498;50.928;11.598;2022-07-18T18:59:59;27.30;42.70
10891;DHT22;5498;50.928;11.598;2022-07-18T19:03:01;27.20;43.30
10891;DHT22;5498;50.928;11.598;2022-07-18T19:06:05;26.70;42.80
10891;DHT22;5498;50.928;11.598;2022-07-18T19:09:07;26.40;43.10
10891;DHT22;5498;50.928;11.598;2022-07-18T19:12:18;26.30;43.30
10891;DHT22;5498;50.928;11.598;2022-07-18T19:15:21;26.30;43.60
10891;DHT22;5498;50.928;11.598;2022-07-18T19:18:23;26.40;44.50